Česky Dansk Deutsch English Español Suomi Français Magyar Italiano Nederlands norsk Polski Português svenska Türkçe

 

Het Weer

Soderhamn (Zweden)

12:20, 3 januari 2012 (GMT)

NWNNE
WE
SWSSE
Home            
Soderhamn Soderhamn Gavle / Sandviken Air Force Base Borlange Siljan / Mora Sundsvall-Harnosand Flygplats Uppsala Stockholm / Arlanda Vasteras / Hasslo Mariehamn / Aland Island Kramfors Flygplats Stockholm / Bromma Pori Orebro Private Ostersund / Froson Ornskoldsvik Airport Stockholm/Skavsta Karlstad Karlstad Flygplats Turku Norrkoping Vaasa Umea Flygplats

Om een weerknop op uw website of weblog te plaatsen, copieer onderstaande code en plak die in uw pagina. In het eerste vakje staat HTML-code, in het tweede vakje UBB-code.


Add to Google

Details

Wind speed:2 bf, 5 kn, 2.6 m/s, 5.8 miles/h, 9.3 km/h
Wind direction:S, 170°
Visibility:Greater than 10000 m, 10 km, 32800 ft, 6.2 miles
Clouds:Wolkenlos at  ft,  m
Temperature:2°C, 36°F
Gefühlte Temperatur:-1°C, 31°F
Atmospheric pressure:994 hPa, 745.6 mmHg, 29.35 inHg, 0.981 atm
METAR:ESNY 031220Z AUTO 17005KT 9999 SKC 02/00 Q0994

Snelkoppelingen

Actuele weersinformatie van de hele wereld. Voeg locaties toe met het plus (+) symbool. Deze snelkoppelingen kunnen worden toegevoegd aan Google.

Lid van de Technetium groep

website free tracking
StatCounter NetStat W3C Validator

14-07-2020 04:06:05
astro.technetium.be money.technetium.be phote.technetium.be tafeltennistafel.technetium.be www.ligfiets.net